Time,TemperatureF,DewpointF,PressureIn,WindDirection,WindDirectionDegrees,WindSpeedMPH,WindSpeedGustMPH,Humidity,HourlyPrecipIn,Conditions,Clouds,dailyrainin,SoftwareType,DateUTC
2013-11-26 00:02:00,35.0,25.0,-100.00,NW,305,8.0,13.0,66,-99.99,,,-99.99,,2013-11-26 06:02:00,
2013-11-26 00:42:00,35.0,25.0,-100.00,WNW,290,4.0,8.0,67,-99.99,,,-99.99,,2013-11-26 06:42:00,
2013-11-26 00:52:00,35.0,25.0,-100.00,WNW,290,4.0,8.0,67,-99.99,,,-99.99,,2013-11-26 06:52:00,
2013-11-26 01:02:00,35.0,25.0,-100.00,WNW,290,4.0,8.0,67,-99.99,,,-99.99,,2013-11-26 07:02:00,
2013-11-26 01:42:00,35.0,25.0,-100.00,WNW,285,5.0,11.0,68,-99.99,,,-99.99,,2013-11-26 07:42:00,
2013-11-26 01:52:00,35.0,25.0,-100.00,WNW,285,5.0,11.0,68,-99.99,,,-99.99,,2013-11-26 07:52:00,
2013-11-26 02:02:00,35.0,25.0,-100.00,WNW,285,5.0,11.0,68,-99.99,,,-99.99,,2013-11-26 08:02:00,
2013-11-26 02:42:00,34.0,25.0,-100.00,WNW,300,7.0,18.0,69,-99.99,,,-99.99,,2013-11-26 08:42:00,
2013-11-26 02:52:00,34.0,25.0,-100.00,WNW,300,7.0,18.0,69,-99.99,,,-99.99,,2013-11-26 08:52:00,
2013-11-26 03:02:00,34.0,25.0,-100.00,WNW,300,7.0,18.0,69,-99.99,,,-99.99,,2013-11-26 09:02:00,
2013-11-26 03:44:00,32.0,23.0,-100.00,WNW,290,10.0,17.0,69,-99.99,,,-99.99,,2013-11-26 09:44:00,
2013-11-26 03:54:00,32.0,23.0,-100.00,WNW,290,10.0,17.0,69,-99.99,,,-99.99,,2013-11-26 09:54:00,
2013-11-26 04:03:00,32.0,23.0,-100.00,WNW,290,10.0,17.0,69,-99.99,,,-99.99,,2013-11-26 10:03:00,
2013-11-26 04:43:00,30.0,20.0,-100.00,WSW,255,9.0,19.0,66,-99.99,,,-99.99,,2013-11-26 10:43:00,
2013-11-26 04:53:00,30.0,20.0,-100.00,WSW,255,9.0,19.0,66,-99.99,,,-99.99,,2013-11-26 10:53:00,
2013-11-26 05:02:00,30.0,20.0,-100.00,WSW,255,9.0,19.0,66,-99.99,,,-99.99,,2013-11-26 11:02:00,
2013-11-26 05:42:00,29.0,19.0,-100.00,South,170,9.0,16.0,65,-99.99,,,-99.99,,2013-11-26 11:42:00,
2013-11-26 05:53:00,29.0,19.0,-100.00,South,170,9.0,16.0,65,-99.99,,,-99.99,,2013-11-26 11:53:00,
2013-11-26 06:02:00,29.0,19.0,-100.00,South,170,9.0,16.0,65,-99.99,,,-99.99,,2013-11-26 12:02:00,
2013-11-26 06:42:00,29.0,18.0,-100.00,WSW,245,10.0,16.0,64,-99.99,,,-99.99,,2013-11-26 12:42:00,
2013-11-26 06:52:00,29.0,18.0,-100.00,WSW,245,10.0,16.0,64,-99.99,,,-99.99,,2013-11-26 12:52:00,
2013-11-26 07:02:00,29.0,18.0,-100.00,WSW,245,10.0,16.0,64,-99.99,,,-99.99,,2013-11-26 13:02:00,
2013-11-26 07:42:00,28.0,19.0,-100.00,WSW,245,7.0,14.0,68,-99.99,,,-99.99,,2013-11-26 13:42:00,
2013-11-26 07:52:00,28.0,19.0,-100.00,WSW,245,7.0,14.0,68,-99.99,,,-99.99,,2013-11-26 13:52:00,
2013-11-26 08:02:00,28.0,19.0,-100.00,WSW,245,7.0,14.0,68,-99.99,,,-99.99,,2013-11-26 14:02:00,
2013-11-26 08:42:00,28.0,17.0,-100.00,WSW,245,4.0,7.0,63,-99.99,,,-99.99,,2013-11-26 14:42:00,
2013-11-26 08:52:00,28.0,17.0,-100.00,WSW,245,4.0,7.0,63,-99.99,,,-99.99,,2013-11-26 14:52:00,
2013-11-26 09:02:00,28.0,17.0,-100.00,WSW,245,4.0,7.0,63,-99.99,,,-99.99,,2013-11-26 15:02:00,
2013-11-26 09:43:00,28.0,18.0,-100.00,WSW,240,6.0,11.0,66,-99.99,,,-99.99,,2013-11-26 15:43:00,
2013-11-26 09:54:00,28.0,18.0,-100.00,WSW,240,6.0,11.0,66,-99.99,,,-99.99,,2013-11-26 15:54:00,
2013-11-26 10:04:00,28.0,18.0,-100.00,WSW,240,6.0,11.0,66,-99.99,,,-99.99,,2013-11-26 16:04:00,
2013-11-26 10:43:00,25.0,19.0,-100.00,SSW,205,9.0,19.0,79,-99.99,,,-99.99,,2013-11-26 16:43:00,
2013-11-26 10:54:00,25.0,19.0,-100.00,SSW,205,9.0,19.0,79,-99.99,,,-99.99,,2013-11-26 16:54:00,
2013-11-26 11:03:00,25.0,19.0,-100.00,SSW,205,9.0,19.0,79,-99.99,,,-99.99,,2013-11-26 17:03:00,
2013-11-26 11:43:00,25.0,15.0,-100.00,SSW,205,11.0,22.0,65,-99.99,,,-99.99,,2013-11-26 17:43:00,
2013-11-26 11:53:00,25.0,15.0,-100.00,SSW,205,11.0,22.0,65,-99.99,,,-99.99,,2013-11-26 17:53:00,
2013-11-26 12:02:00,25.0,15.0,-100.00,SSW,205,11.0,22.0,65,-99.99,,,-99.99,,2013-11-26 18:02:00,
2013-11-26 12:42:00,22.0,12.0,-100.00,NNW,345,14.0,29.0,64,-99.99,,,-99.99,,2013-11-26 18:42:00,
2013-11-26 12:53:00,22.0,12.0,-100.00,NNW,345,14.0,29.0,64,-99.99,,,-99.99,,2013-11-26 18:53:00,
2013-11-26 13:03:00,22.0,12.0,-100.00,NNW,345,14.0,29.0,64,-99.99,,,-99.99,,2013-11-26 19:03:00,
2013-11-26 13:42:00,22.0,7.0,-100.00,SW,230,14.0,26.0,52,-99.99,,,-99.99,,2013-11-26 19:42:00,
2013-11-26 13:52:00,22.0,7.0,-100.00,SW,230,14.0,26.0,52,-99.99,,,-99.99,,2013-11-26 19:52:00,
2013-11-26 14:02:00,22.0,7.0,-100.00,SW,230,14.0,26.0,52,-99.99,,,-99.99,,2013-11-26 20:02:00,
2013-11-26 14:42:00,21.0,5.0,-100.00,WSW,240,12.0,22.0,51,-99.99,,,-99.99,,2013-11-26 20:42:00,
2013-11-26 14:53:00,21.0,5.0,-100.00,WSW,240,12.0,22.0,51,-99.99,,,-99.99,,2013-11-26 20:53:00,
2013-11-26 15:02:00,21.0,5.0,-100.00,WSW,240,12.0,22.0,51,-99.99,,,-99.99,,2013-11-26 21:02:00,
2013-11-26 15:44:00,19.0,5.0,-100.00,North,350,15.0,22.0,53,-99.99,,,-99.99,,2013-11-26 21:44:00,
2013-11-26 15:53:00,19.0,5.0,-100.00,North,350,15.0,22.0,53,-99.99,,,-99.99,,2013-11-26 21:53:00,
2013-11-26 16:03:00,19.0,5.0,-100.00,North,350,15.0,22.0,53,-99.99,,,-99.99,,2013-11-26 22:03:00,
2013-11-26 16:43:00,18.0,4.0,-100.00,North,350,12.0,22.0,54,-99.99,,,-99.99,,2013-11-26 22:43:00,
2013-11-26 16:53:00,18.0,4.0,-100.00,North,350,12.0,22.0,54,-99.99,,,-99.99,,2013-11-26 22:53:00,
2013-11-26 17:02:00,18.0,4.0,-100.00,North,350,12.0,22.0,54,-99.99,,,-99.99,,2013-11-26 23:02:00,
2013-11-26 17:43:00,17.0,4.0,-100.00,NNW,340,6.0,9.0,58,-99.99,,,-99.99,,2013-11-26 23:43:00,
2013-11-26 17:53:00,17.0,4.0,-100.00,NNW,340,6.0,9.0,58,-99.99,,,-99.99,,2013-11-26 23:53:00,
2013-11-26 18:02:00,17.0,4.0,-100.00,NNW,340,6.0,9.0,58,-99.99,,,-99.99,,2013-11-27 00:02:00,
2013-11-26 18:42:00,16.0,6.0,-100.00,NNW,340,8.0,12.0,63,-99.99,,,-99.99,,2013-11-27 00:42:00,
2013-11-26 18:52:00,16.0,6.0,-100.00,NNW,340,8.0,12.0,63,-99.99,,,-99.99,,2013-11-27 00:52:00,
2013-11-26 19:02:00,16.0,6.0,-100.00,NNW,340,8.0,12.0,63,-99.99,,,-99.99,,2013-11-27 01:02:00,
2013-11-26 19:42:00,16.0,4.0,-100.00,NNW,340,5.0,9.0,61,-99.99,,,-99.99,,2013-11-27 01:42:00,
2013-11-26 19:52:00,16.0,4.0,-100.00,NNW,340,5.0,9.0,61,-99.99,,,-99.99,,2013-11-27 01:52:00,
2013-11-26 20:02:00,16.0,4.0,-100.00,NNW,340,5.0,9.0,61,-99.99,,,-99.99,,2013-11-27 02:02:00,
2013-11-26 20:42:00,15.0,4.0,-100.00,NNW,340,8.0,13.0,63,-99.99,,,-99.99,,2013-11-27 02:42:00,
2013-11-26 20:52:00,15.0,4.0,-100.00,NNW,340,8.0,13.0,63,-99.99,,,-99.99,,2013-11-27 02:52:00,
2013-11-26 21:02:00,15.0,4.0,-100.00,NNW,340,8.0,13.0,63,-99.99,,,-99.99,,2013-11-27 03:02:00,
2013-11-26 21:44:00,14.0,4.0,-100.00,NNW,340,8.0,14.0,64,-99.99,,,-99.99,,2013-11-27 03:44:00,
2013-11-26 21:53:00,14.0,4.0,-100.00,NNW,340,8.0,14.0,64,-99.99,,,-99.99,,2013-11-27 03:53:00,
2013-11-26 22:04:00,14.0,4.0,-100.00,NNW,340,8.0,14.0,64,-99.99,,,-99.99,,2013-11-27 04:04:00,
2013-11-26 22:43:00,13.0,3.0,-100.00,NNW,340,7.0,12.0,65,-99.99,,,-99.99,,2013-11-27 04:43:00,
2013-11-26 22:53:00,13.0,3.0,-100.00,NNW,340,7.0,12.0,65,-99.99,,,-99.99,,2013-11-27 04:53:00,
2013-11-26 23:02:00,13.0,3.0,-100.00,NNW,340,7.0,12.0,65,-99.99,,,-99.99,,2013-11-27 05:02:00,
2013-11-26 23:42:00,13.0,3.0,-100.00,NNW,340,6.0,15.0,65,-99.99,,,-99.99,,2013-11-27 05:42:00,
2013-11-26 23:53:00,13.0,3.0,-100.00,NNW,340,6.0,15.0,65,-99.99,,,-99.99,,2013-11-27 05:53:00,